Time;durP1;ratioP1;P1;durP2;ratioP2;P2;SDS_P1;SDS_P2;PMS_P1;PMS_P2;Temp;Humidity;BMP_temperature;BMP_pressure;BME280_temperature;BME280_humidity;BME280_pressure;Samples;Min_cycle;Max_cycle;Signal;HPM_P1;HPM_P2
2023/06/06 00:01:34;;;;;;;1999.90;999.90;;;14.90;99.90;;;;;;5073106;28;20539;-71
2023/06/06 00:04:02;;;;;;;1999.90;999.90;;;14.80;99.90;;;;;;5068563;28;20485;-72
2023/06/06 00:06:32;;;;;;;1999.90;999.90;;;14.90;99.90;;;;;;5068258;28;20481;-72
2023/06/06 00:08:59;;;;;;;1999.90;999.90;;;15.00;99.90;;;;;;5068601;28;20852;-72
2023/06/06 00:11:26;;;;;;;1999.90;999.90;;;14.90;99.90;;;;;;5075244;28;20439;-69
2023/06/06 00:13:53;;;;;;;1999.90;999.90;;;15.00;99.90;;;;;;5068710;28;20436;-72
2023/06/06 00:16:19;;;;;;;1999.90;999.90;;;14.90;99.90;;;;;;5066382;28;20503;-72
2023/06/06 00:18:46;;;;;;;1999.90;999.90;;;14.70;99.90;;;;;;5068515;28;20435;-72
2023/06/06 00:21:14;;;;;;;1999.90;999.90;;;14.80;99.90;;;;;;5069377;28;20486;-71
2023/06/06 00:23:45;;;;;;;1999.90;999.90;;;14.70;99.90;;;;;;5068638;28;20499;-70
2023/06/06 00:26:11;;;;;;;1999.90;999.90;;;14.90;99.90;;;;;;5068759;28;20431;-69
2023/06/06 00:28:38;;;;;;;1999.90;999.90;;;15.00;99.90;;;;;;5066015;28;20917;-69
2023/06/06 00:31:05;;;;;;;1999.90;999.90;;;15.00;99.90;;;;;;5067752;28;20471;-69
2023/06/06 00:33:31;;;;;;;1999.90;999.90;;;15.00;99.90;;;;;;5068603;28;20484;-71
2023/06/06 00:35:58;;;;;;;1999.90;999.90;;;14.90;99.90;;;;;;5071009;28;20789;-69
2023/06/06 00:38:26;;;;;;;1999.90;999.90;;;14.70;99.90;;;;;;5066600;28;21015;-70
2023/06/06 00:40:52;;;;;;;1999.90;999.90;;;14.80;99.90;;;;;;5069531;28;20435;-71
2023/06/06 00:43:19;;;;;;;1999.90;999.90;;;14.50;99.90;;;;;;5067795;28;20431;-72
2023/06/06 00:45:46;;;;;;;1999.90;999.90;;;14.60;99.90;;;;;;5068479;28;20492;-71
2023/06/06 00:48:13;;;;;;;1999.90;999.90;;;14.60;99.90;;;;;;5067763;28;20435;-71
2023/06/06 00:50:40;;;;;;;1999.90;999.90;;;14.70;99.90;;;;;;5075436;28;20439;-72
2023/06/06 00:53:08;;;;;;;1999.90;999.90;;;14.90;99.90;;;;;;5066720;28;20427;-72
2023/06/06 00:55:37;;;;;;;1999.90;999.90;;;14.90;99.90;;;;;;5066105;28;20496;-72
2023/06/06 00:58:06;;;;;;;1999.90;999.90;;;14.90;99.90;;;;;;5069015;28;20431;-71
2023/06/06 01:00:33;;;;;;;1999.90;999.90;;;14.80;99.90;;;;;;5067971;28;20467;-72
2023/06/06 01:03:03;;;;;;;1999.90;999.90;;;14.90;99.90;;;;;;5068455;28;20514;-71
2023/06/06 01:05:30;;;;;;;1999.90;999.90;;;14.70;99.90;;;;;;5067646;28;20431;-72
2023/06/06 01:07:57;;;;;;;1999.90;999.90;;;14.60;99.90;;;;;;5067630;28;20475;-71
2023/06/06 01:10:24;;;;;;;1999.90;999.90;;;14.30;99.90;;;;;;5067174;28;20463;-71
2023/06/06 01:13:01;;;;;;;1999.90;999.90;;;14.40;99.90;;;;;;5069115;28;20481;-72
2023/06/06 01:15:36;;;;;;;1999.90;999.90;;;14.40;99.90;;;;;;5067448;28;21825;-71
2023/06/06 01:18:04;;;;;;;1999.90;999.90;;;14.30;99.90;;;;;;5073117;28;20478;-72
2023/06/06 01:20:34;;;;;;;1999.90;999.90;;;14.20;99.90;;;;;;5066962;28;20427;-71
2023/06/06 01:23:03;;;;;;;1999.90;999.90;;;14.20;99.90;;;;;;5067782;28;20438;-71
2023/06/06 01:25:34;;;;;;;1999.90;999.90;;;14.10;99.90;;;;;;5067799;28;20957;-73
2023/06/06 01:28:00;;;;;;;1999.90;999.90;;;14.10;99.90;;;;;;5067808;28;20510;-72
2023/06/06 01:30:28;;;;;;;1999.90;999.90;;;14.30;99.90;;;;;;5069211;28;20438;-72
2023/06/06 01:33:04;;;;;;;1999.90;999.90;;;14.20;99.90;;;;;;5067686;28;20990;-72
2023/06/06 01:35:41;;;;;;;1999.90;999.90;;;14.20;99.90;;;;;;5067340;28;20446;-73
2023/06/06 01:38:13;;;;;;;1999.90;999.90;;;14.20;99.90;;;;;;5070118;28;20428;-72
2023/06/06 01:40:41;;;;;;;1999.90;999.90;;;14.10;99.90;;;;;;5062330;28;20481;-72
2023/06/06 01:43:09;;;;;;;1999.90;999.90;;;14.00;99.90;;;;;;5067773;28;20451;-72
2023/06/06 01:45:37;;;;;;;1999.90;999.90;;;14.00;99.90;;;;;;5066589;28;20423;-72
2023/06/06 01:48:05;;;;;;;1999.90;999.90;;;14.00;99.90;;;;;;5070527;28;20428;-72
2023/06/06 01:50:33;;;;;;;1999.90;999.90;;;13.90;99.90;;;;;;5067436;28;21015;-72
2023/06/06 01:52:59;;;;;;;1999.90;999.90;;;13.90;99.90;;;;;;5067470;28;20439;-72
2023/06/06 01:55:27;;;;;;;1999.90;999.90;;;13.90;99.90;;;;;;5067274;28;20435;-71
2023/06/06 01:57:54;;;;;;;1999.90;999.90;;;13.90;99.90;;;;;;5074075;28;20435;-72
2023/06/06 02:00:21;;;;;;;1999.90;999.90;;;13.90;99.90;;;;;;5067459;28;20427;-71
2023/06/06 02:02:48;;;;;;;1999.90;999.90;;;13.90;99.90;;;;;;5068390;28;20458;-72
2023/06/06 02:05:15;;;;;;;1999.90;999.90;;;14.00;99.90;;;;;;5070916;28;20489;-71
2023/06/06 02:07:42;;;;;;;1999.90;999.90;;;14.00;99.90;;;;;;5071817;28;20457;-71
2023/06/06 02:10:10;;;;;;;1999.90;999.90;;;14.00;99.90;;;;;;5069588;28;20427;-74
2023/06/06 02:12:38;;;;;;;1999.90;999.90;;;13.90;99.90;;;;;;5071122;28;20431;-72
2023/06/06 02:15:06;;;;;;;1999.90;999.90;;;14.00;99.90;;;;;;5074095;28;20481;-72
2023/06/06 02:17:32;;;;;;;1999.90;999.90;;;14.10;99.90;;;;;;5074000;28;20440;-71
2023/06/06 02:19:59;;;;;;;1999.90;999.90;;;14.10;99.90;;;;;;5070108;28;20432;-72
2023/06/06 02:22:25;;;;;;;1999.90;999.90;;;14.20;99.90;;;;;;5069996;28;20557;-72
2023/06/06 02:24:54;;;;;;;1999.90;999.90;;;14.20;99.90;;;;;;5070361;28;20428;-72
2023/06/06 02:27:21;;;;;;;1999.90;999.90;;;14.30;99.90;;;;;;5075574;28;20435;-72
2023/06/06 02:29:49;;;;;;;1999.90;999.90;;;14.10;99.90;;;;;;5071455;28;20922;-71
2023/06/06 02:32:16;;;;;;;1999.90;999.90;;;14.10;99.90;;;;;;5069953;28;20439;-72
2023/06/06 02:34:42;;;;;;;1999.90;999.90;;;14.00;99.90;;;;;;5070683;28;20432;-72
2023/06/06 02:37:09;;;;;;;1999.90;999.90;;;14.00;99.90;;;;;;5077888;28;20510;-72
2023/06/06 02:39:36;;;;;;;1999.90;999.90;;;14.00;99.90;;;;;;5069532;28;20434;-72
2023/06/06 02:42:03;;;;;;;1999.90;999.90;;;13.70;99.90;;;;;;5074243;28;20435;-71
2023/06/06 02:44:30;;;;;;;1999.90;999.90;;;13.80;99.90;;;;;;5069894;28;20432;-71
2023/06/06 02:46:58;;;;;;;1999.90;999.90;;;13.90;99.90;;;;;;5071415;28;20438;-71
2023/06/06 02:49:27;;;;;;;1999.90;999.90;;;13.80;99.90;;;;;;5069338;28;20436;-72
2023/06/06 02:51:53;;;;;;;1999.90;999.90;;;13.60;99.90;;;;;;5069802;28;20443;-71
2023/06/06 02:54:20;;;;;;;1999.90;999.90;;;13.30;99.90;;;;;;5069856;28;20459;-71
2023/06/06 02:56:47;;;;;;;1999.90;999.90;;;13.30;99.90;;;;;;5070693;28;20518;-72
2023/06/06 02:59:14;;;;;;;1999.90;999.90;;;13.30;99.90;;;;;;5068365;28;20438;-71
2023/06/06 03:01:44;;;;;;;1999.90;999.90;;;13.50;99.90;;;;;;5063265;28;20431;-71
2023/06/06 03:04:13;;;;;;;1999.90;999.90;;;13.10;99.90;;;;;;5070280;28;20463;-72
2023/06/06 03:06:40;;;;;;;1999.90;999.90;;;13.20;99.90;;;;;;5068831;28;20428;-71
2023/06/06 03:09:07;;;;;;;1999.90;999.90;;;13.30;99.90;;;;;;5069125;28;20452;-72
2023/06/06 03:11:34;;;;;;;1999.90;999.90;;;13.50;99.90;;;;;;5071952;28;20484;-71
2023/06/06 03:14:01;;;;;;;1999.90;999.90;;;13.40;99.90;;;;;;5065565;28;20427;-68
2023/06/06 03:16:28;;;;;;;1999.90;999.90;;;13.30;99.90;;;;;;5069121;28;20431;-72
2023/06/06 03:18:55;;;;;;;1999.90;999.90;;;13.30;99.90;;;;;;5069415;28;20428;-72
2023/06/06 03:21:23;;;;;;;1999.90;999.90;;;13.00;99.90;;;;;;5080112;28;20429;-68
2023/06/06 03:23:50;;;;;;;1999.90;999.90;;;13.10;99.90;;;;;;5071718;28;20450;-72
2023/06/06 03:26:19;;;;;;;1999.90;999.90;;;13.00;99.90;;;;;;5070780;28;20431;-71
2023/06/06 03:28:46;;;;;;;1999.90;999.90;;;12.90;99.90;;;;;;5069850;28;20428;-73
2023/06/06 03:31:12;;;;;;;1999.90;999.90;;;12.70;99.90;;;;;;5069489;28;20438;-71
2023/06/06 03:33:39;;;;;;;1999.90;999.90;;;12.50;99.90;;;;;;5074951;28;20481;-73
2023/06/06 03:36:07;;;;;;;1999.90;999.90;;;12.60;99.90;;;;;;5064778;28;20431;-72
2023/06/06 03:38:35;;;;;;;1999.90;999.90;;;12.70;99.90;;;;;;5068059;28;20433;-71
2023/06/06 03:41:02;;;;;;;1999.90;999.90;;;12.80;99.90;;;;;;5067415;28;20439;-71
2023/06/06 03:43:29;;;;;;;1999.90;999.90;;;12.70;99.90;;;;;;5069244;28;20427;-71
2023/06/06 03:45:56;;;;;;;1999.90;999.90;;;12.80;99.90;;;;;;5069547;28;20903;-71
2023/06/06 03:48:23;;;;;;;1999.90;999.90;;;12.80;99.90;;;;;;5073803;28;20429;-71
2023/06/06 03:50:49;;;;;;;1999.90;999.90;;;12.80;99.90;;;;;;5068814;28;20485;-74
2023/06/06 03:53:16;;;;;;;1999.90;999.90;;;12.80;99.90;;;;;;5070548;28;20578;-73
2023/06/06 03:55:46;;;;;;;1999.90;999.90;;;12.50;99.90;;;;;;5069190;28;20427;-71
2023/06/06 03:58:14;;;;;;;1999.90;999.90;;;12.40;99.90;;;;;;5069183;28;20850;-72
2023/06/06 04:00:41;;;;;;;1999.90;999.90;;;12.50;99.90;;;;;;5067951;28;20437;-72
2023/06/06 04:03:07;;;;;;;1999.90;999.90;;;12.50;99.90;;;;;;5064380;28;20493;-73
2023/06/06 04:05:34;;;;;;;1999.90;999.90;;;12.60;99.90;;;;;;5066599;28;20428;-72
2023/06/06 04:08:01;;;;;;;1999.90;999.90;;;12.80;99.90;;;;;;5068722;28;20438;-72
2023/06/06 04:10:28;;;;;;;1999.90;999.90;;;12.90;99.90;;;;;;5075639;28;20984;-73
2023/06/06 04:12:56;;;;;;;1999.90;999.90;;;13.20;99.90;;;;;;5075424;28;20936;-73
2023/06/06 04:15:22;;;;;;;1999.90;999.90;;;13.40;99.90;;;;;;5068586;28;20436;-71
2023/06/06 04:17:49;;;;;;;1999.90;999.90;;;13.50;99.90;;;;;;5068714;28;20431;-72
2023/06/06 04:20:16;;;;;;;1999.90;999.90;;;13.60;99.90;;;;;;5066893;28;20520;-70
2023/06/06 04:22:43;;;;;;;1999.90;999.90;;;13.80;99.90;;;;;;5068682;28;20492;-73
2023/06/06 04:25:12;;;;;;;1999.90;999.90;;;13.90;99.90;;;;;;5068300;28;20976;-72
2023/06/06 04:27:40;;;;;;;1999.90;999.90;;;14.10;99.90;;;;;;5067818;28;20439;-70
2023/06/06 04:30:12;;;;;;;1999.90;999.90;;;14.40;99.90;;;;;;5074029;28;20443;-70
2023/06/06 04:32:39;;;;;;;1999.90;999.90;;;15.20;99.90;;;;;;5068703;28;21013;-70
2023/06/06 04:35:07;;;;;;;1999.90;999.90;;;16.00;99.90;;;;;;5068180;28;20510;-69
2023/06/06 04:37:33;;;;;;;1999.90;999.90;;;16.70;99.90;;;;;;5068001;28;20492;-71
2023/06/06 04:40:00;;;;;;;1999.90;999.90;;;16.90;99.90;;;;;;5070323;28;20890;-70
2023/06/06 04:42:32;;;;;;;1999.90;999.90;;;17.00;99.90;;;;;;5070696;28;20436;-70
2023/06/06 04:45:00;;;;;;;1999.90;999.90;;;16.90;99.90;;;;;;5068049;28;20432;-70
2023/06/06 04:47:29;;;;;;;1999.90;999.90;;;17.50;99.90;;;;;;5067012;28;20458;-69
2023/06/06 04:49:56;;;;;;;1999.90;999.90;;;18.30;99.90;;;;;;5072051;28;20430;-70
2023/06/06 04:52:23;;;;;;;1999.90;999.90;;;18.90;99.70;;;;;;5071096;28;20855;-71
2023/06/06 04:54:51;;;;;;;1999.90;999.90;;;19.10;99.00;;;;;;5066372;28;20544;-70
2023/06/06 04:57:19;;;;;;;1999.90;999.90;;;19.60;98.40;;;;;;5068134;28;20446;-71
2023/06/06 04:59:50;;;;;;;1999.90;999.90;;;19.70;97.90;;;;;;5069135;28;20427;-71
2023/06/06 05:02:18;;;;;;;1999.90;999.90;;;19.90;97.70;;;;;;5068114;28;20514;-71
2023/06/06 05:04:46;;;;;;;1999.90;999.90;;;20.00;97.00;;;;;;5067596;28;20470;-70
2023/06/06 05:07:13;;;;;;;1999.90;999.90;;;19.60;97.00;;;;;;5068159;28;20996;-69
2023/06/06 05:09:39;;;;;;;1999.90;999.90;;;19.10;98.20;;;;;;5075766;28;20436;-70
2023/06/06 05:12:07;;;;;;;1999.90;999.90;;;19.20;98.20;;;;;;5066950;28;20477;-69
2023/06/06 05:14:33;;;;;;;1999.90;999.90;;;18.10;98.80;;;;;;5069816;28;20898;-69
2023/06/06 05:17:00;;;;;;;1999.90;999.90;;;17.90;99.80;;;;;;5076351;28;20427;-72
2023/06/06 05:19:27;;;;;;;1999.90;999.90;;;17.80;99.90;;;;;;5071809;28;20799;-70
2023/06/06 05:21:55;;;;;;;1999.90;999.90;;;17.80;99.90;;;;;;5066908;28;20501;-69
2023/06/06 05:24:21;;;;;;;1999.90;999.90;;;17.40;99.90;;;;;;5063997;28;20918;-70
2023/06/06 05:26:48;;;;;;;1999.90;999.90;;;17.70;99.90;;;;;;5062301;28;20446;-71
2023/06/06 05:29:15;;;;;;;1999.90;999.90;;;18.10;99.90;;;;;;5074660;28;20429;-70
2023/06/06 05:31:42;;;;;;;1999.90;999.90;;;18.40;99.90;;;;;;5067729;28;20504;-70
2023/06/06 05:34:08;;;;;;;1999.90;999.90;;;18.70;99.90;;;;;;5062907;28;20497;-70
2023/06/06 05:36:36;;;;;;;1999.90;999.90;;;19.80;99.40;;;;;;5062979;28;20493;-70
2023/06/06 05:39:04;;;;;;;1999.90;999.90;;;20.40;97.50;;;;;;5068213;28;20427;-70
2023/06/06 05:41:31;;;;;;;1999.90;999.90;;;20.30;97.40;;;;;;5070658;28;20443;-70
2023/06/06 05:43:57;;;;;;;1999.90;999.90;;;20.20;96.70;;;;;;5069990;28;20431;-71
2023/06/06 05:46:26;;;;;;;1999.90;999.90;;;20.20;96.60;;;;;;5080894;28;20492;-71
2023/06/06 05:48:52;;;;;;;1999.90;999.90;;;19.90;97.60;;;;;;5064850;28;20415;-71
2023/06/06 05:51:19;;;;;;;1999.90;999.90;;;19.90;98.70;;;;;;5070131;28;20435;-68
2023/06/06 05:53:46;;;;;;;1999.90;999.90;;;19.80;99.90;;;;;;5072874;28;20418;-72
2023/06/06 05:56:16;;;;;;;1999.90;999.90;;;20.40;99.40;;;;;;5086345;22;20441;-72
2023/06/06 05:58:42;;;;;;;1999.90;999.90;;;20.60;99.10;;;;;;5068718;28;20415;-73
2023/06/06 06:01:09;;;;;;;1999.90;999.90;;;20.50;99.20;;;;;;5072496;28;20481;-72
2023/06/06 06:03:36;;;;;;;1999.90;999.90;;;20.50;97.80;;;;;;5073510;28;20421;-73
2023/06/06 06:06:04;;;;;;;1999.90;999.90;;;20.40;97.10;;;;;;5057384;28;20854;-73
2023/06/06 06:08:33;;;;;;;1999.90;999.90;;;19.90;97.60;;;;;;5036288;28;20427;-73
2023/06/06 06:11:00;;;;;;;1999.90;999.90;;;19.60;98.60;;;;;;5033370;28;20423;-73
2023/06/06 06:13:28;;;;;;;1999.90;999.90;;;19.50;98.90;;;;;;5040073;28;20466;-72
2023/06/06 06:15:55;;;;;;;1999.90;999.90;;;19.20;99.20;;;;;;5053320;28;20409;-73
2023/06/06 06:18:21;;;;;;;1999.90;999.90;;;19.00;99.90;;;;;;5045773;28;20439;-74
2023/06/06 06:20:48;;;;;;;1999.90;999.90;;;18.80;99.90;;;;;;5041995;28;20477;-73
2023/06/06 06:23:15;;;;;;;1999.90;999.90;;;18.50;99.90;;;;;;5039847;28;20438;-73
2023/06/06 06:25:42;;;;;;;1999.90;999.90;;;18.50;99.90;;;;;;5045225;28;20427;-74
2023/06/06 06:28:19;;;;;;;1999.90;999.90;;;18.50;99.90;;;;;;5046811;28;20440;-73
2023/06/06 06:30:48;;;;;;;1999.90;999.90;;;18.50;99.90;;;;;;5051237;28;20425;-74
2023/06/06 06:33:14;;;;;;;1999.90;999.90;;;18.60;99.90;;;;;;5045277;28;20425;-70
2023/06/06 06:35:42;;;;;;;1999.90;999.90;;;18.50;99.90;;;;;;5053389;28;20459;-73
2023/06/06 06:38:09;;;;;;;1999.90;999.90;;;18.50;99.90;;;;;;5052676;28;20488;-73
2023/06/06 06:40:35;;;;;;;1999.90;999.90;;;18.50;99.90;;;;;;5047794;28;20800;-72
2023/06/06 06:43:02;;;;;;;1999.90;999.90;;;18.40;99.90;;;;;;5050000;28;20988;-73
2023/06/06 06:45:29;;;;;;;1999.90;999.90;;;18.40;99.90;;;;;;5044631;28;20485;-73
2023/06/06 06:47:58;;;;;;;1999.90;999.90;;;18.30;99.90;;;;;;5032667;28;20411;-75
2023/06/06 06:50:25;;;;;;;1999.90;999.90;;;18.10;99.90;;;;;;5032954;28;20423;-74
2023/06/06 06:52:55;;;;;;;1999.90;999.90;;;18.30;99.90;;;;;;5033631;28;20415;-73
2023/06/06 06:55:23;;;;;;;1999.90;999.90;;;18.40;99.90;;;;;;5040633;28;20515;-73
2023/06/06 06:57:51;;;;;;;1999.90;999.90;;;18.30;99.90;;;;;;5048704;28;20436;-73
2023/06/06 07:00:22;;;;;;;1999.90;999.90;;;18.20;99.90;;;;;;5048684;28;21061;-73
2023/06/06 07:02:49;;;;;;;1999.90;999.90;;;18.00;99.90;;;;;;5041420;28;20444;-73
2023/06/06 07:05:17;;;;;;;1999.90;999.90;;;18.00;99.90;;;;;;5041971;28;20456;-71
2023/06/06 07:07:46;;;;;;;1999.90;999.90;;;18.10;99.90;;;;;;5042242;28;20494;-74
2023/06/06 07:10:14;;;;;;;1999.90;999.90;;;17.90;99.90;;;;;;5046673;28;20417;-73
2023/06/06 07:12:41;;;;;;;1999.90;999.90;;;17.90;99.90;;;;;;5047055;28;20551;-73
2023/06/06 07:15:09;;;;;;;1999.90;999.90;;;17.90;99.90;;;;;;5043943;28;20975;-73
2023/06/06 07:17:35;;;;;;;1999.90;999.90;;;18.00;99.90;;;;;;5045161;28;20429;-73
2023/06/06 07:20:07;;;;;;;1999.90;999.90;;;17.90;99.90;;;;;;5048138;28;20487;-74
2023/06/06 07:22:36;;;;;;;1999.90;999.90;;;18.10;99.90;;;;;;5040389;28;20465;-73
2023/06/06 07:25:04;;;;;;;1999.90;999.90;;;18.40;99.90;;;;;;5047602;28;20425;-72
2023/06/06 07:27:34;;;;;;;1999.90;999.90;;;18.40;99.90;;;;;;5047567;28;20439;-74
2023/06/06 07:30:02;;;;;;;1999.90;999.90;;;18.70;99.90;;;;;;5040523;28;20440;-73
2023/06/06 07:32:29;;;;;;;1999.90;999.90;;;18.90;99.90;;;;;;5046890;28;20515;-74
2023/06/06 07:34:56;;;;;;;1999.90;999.90;;;19.10;99.90;;;;;;5048901;28;20464;-73
2023/06/06 07:37:23;;;;;;;1999.90;999.90;;;19.20;99.90;;;;;;5042604;28;20441;-74
2023/06/06 07:39:51;;;;;;;1999.90;999.90;;;19.30;99.90;;;;;;5051152;28;20498;-76
2023/06/06 07:42:20;;;;;;;1999.90;999.90;;;19.20;99.90;;;;;;5051291;28;20413;-75
2023/06/06 07:44:46;;;;;;;1999.90;999.90;;;19.10;99.90;;;;;;5051094;28;20449;-75
2023/06/06 07:47:13;;;;;;;1999.90;999.90;;;19.20;99.90;;;;;;5046941;28;20916;-73
2023/06/06 07:49:43;;;;;;;1999.90;999.90;;;19.00;99.90;;;;;;5039020;28;20481;-72
2023/06/06 07:52:10;;;;;;;1999.90;999.90;;;19.30;99.90;;;;;;5037530;28;20422;-75
2023/06/06 07:54:37;;;;;;;1999.90;999.90;;;19.20;99.90;;;;;;5032099;28;20476;-72
2023/06/06 07:57:07;;;;;;;1999.90;999.90;;;19.20;99.90;;;;;;5031665;28;20505;-74
2023/06/06 07:59:34;;;;;;;1999.90;999.90;;;19.20;99.90;;;;;;5031045;28;20423;-73
2023/06/06 08:02:01;;;;;;;1999.90;999.90;;;19.30;99.90;;;;;;5041312;28;20448;-73
2023/06/06 08:04:28;;;;;;;1999.90;999.90;;;19.40;99.90;;;;;;5035242;28;20935;-73
2023/06/06 08:06:55;;;;;;;1999.90;999.90;;;19.20;99.90;;;;;;5031526;28;20434;-73
2023/06/06 08:09:21;;;;;;;1999.90;999.90;;;19.20;99.90;;;;;;5031617;28;20458;-73
2023/06/06 08:11:48;;;;;;;1999.90;999.90;;;19.00;99.90;;;;;;5031047;28;20481;-73
2023/06/06 08:14:16;;;;;;;1999.90;999.90;;;19.30;99.90;;;;;;5031934;28;20431;-73
2023/06/06 08:16:43;;;;;;;1999.90;999.90;;;19.40;99.90;;;;;;5039609;28;20922;-73
2023/06/06 08:19:09;;;;;;;1999.90;999.90;;;19.40;99.90;;;;;;5042150;28;20421;-73
2023/06/06 08:21:36;;;;;;;1999.90;999.90;;;19.50;99.90;;;;;;5034300;28;20429;-73
2023/06/06 08:24:03;;;;;;;1999.90;999.90;;;19.70;99.90;;;;;;5031327;28;20419;-72
2023/06/06 08:26:31;;;;;;;1999.90;999.90;;;19.60;99.90;;;;;;5031248;28;20431;-73
2023/06/06 08:28:59;;;;;;;1999.90;999.90;;;19.50;99.90;;;;;;5031058;28;21399;-73
2023/06/06 08:31:29;;;;;;;1999.90;999.90;;;19.70;99.90;;;;;;5039315;28;20584;-71
2023/06/06 08:33:56;;;;;;;1999.90;999.90;;;19.60;99.90;;;;;;5039383;28;20429;-73
2023/06/06 08:36:23;;;;;;;1999.90;999.90;;;19.50;99.90;;;;;;5036367;28;20538;-70
2023/06/06 08:38:49;;;;;;;1999.90;999.90;;;19.60;99.90;;;;;;5031079;28;20442;-74
2023/06/06 08:41:16;;;;;;;1999.90;999.90;;;19.70;99.90;;;;;;5030595;28;20828;-73
2023/06/06 08:43:46;;;;;;;1999.90;999.90;;;19.40;99.90;;;;;;5031223;28;20509;-69
2023/06/06 08:46:15;;;;;;;1999.90;999.90;;;19.20;99.90;;;;;;5042522;28;20849;-73
2023/06/06 08:48:44;;;;;;;1999.90;999.90;;;19.20;99.90;;;;;;5033463;28;20419;-73
2023/06/06 08:51:13;;;;;;;1999.90;999.90;;;19.50;99.90;;;;;;5050714;28;20479;-72
2023/06/06 08:53:40;;;;;;;1999.90;999.90;;;19.50;99.90;;;;;;5050579;28;20822;-73
2023/06/06 08:56:08;;;;;;;1999.90;999.90;;;19.80;99.90;;;;;;5050882;28;20472;-73
2023/06/06 08:58:37;;;;;;;1999.90;999.90;;;19.90;99.70;;;;;;5050593;28;20419;-73
2023/06/06 09:01:05;;;;;;;1999.90;999.90;;;19.90;99.90;;;;;;5040972;28;20429;-72
2023/06/06 09:03:33;;;;;;;1999.90;999.90;;;20.00;99.90;;;;;;5037856;28;20803;-72
2023/06/06 09:06:01;;;;;;;1999.90;999.90;;;20.40;99.50;;;;;;5038989;28;20457;-73
2023/06/06 09:08:28;;;;;;;1999.90;999.90;;;20.10;99.50;;;;;;5030945;28;20434;-72
2023/06/06 09:10:55;;;;;;;1999.90;999.90;;;20.20;99.90;;;;;;5041054;28;20852;-73
2023/06/06 09:13:21;;;;;;;1999.90;999.90;;;19.90;99.90;;;;;;5039427;28;20423;-73
2023/06/06 09:15:48;;;;;;;1999.90;999.90;;;19.60;99.90;;;;;;5034840;28;20415;-73
2023/06/06 09:18:15;;;;;;;1999.90;999.90;;;19.60;99.90;;;;;;5040279;28;20434;-72
2023/06/06 09:20:42;;;;;;;1999.90;999.90;;;19.00;99.90;;;;;;5042773;28;20804;-75
2023/06/06 09:23:13;;;;;;;1999.90;999.90;;;19.20;99.90;;;;;;5034745;28;20411;-73
2023/06/06 09:25:44;;;;;;;1999.90;999.90;;;19.20;99.90;;;;;;5034367;28;20430;-73
2023/06/06 09:28:11;;;;;;;1999.90;999.90;;;19.30;99.90;;;;;;5034517;28;20422;-73
2023/06/06 09:30:37;;;;;;;1999.90;999.90;;;19.40;99.90;;;;;;5034363;28;20492;-73
2023/06/06 09:33:05;;;;;;;1999.90;999.90;;;19.40;99.90;;;;;;5041915;28;20951;-69
2023/06/06 09:35:32;;;;;;;1999.90;999.90;;;19.50;99.90;;;;;;5042347;28;20893;-73
2023/06/06 09:38:07;;;;;;;1999.90;999.90;;;19.80;99.90;;;;;;5043923;28;20479;-73
2023/06/06 09:40:44;;;;;;;1999.90;999.90;;;20.10;99.70;;;;;;5044124;28;20441;-73
2023/06/06 09:43:11;;;;;;;1999.90;999.90;;;19.70;99.90;;;;;;5048362;28;20446;-72
2023/06/06 09:45:48;;;;;;;1999.90;999.90;;;19.90;99.90;;;;;;5049621;28;20436;-73
2023/06/06 09:48:21;;;;;;;1999.90;999.90;;;19.70;99.90;;;;;;5040950;28;20445;-73
2023/06/06 09:50:47;;;;;;;1999.90;999.90;;;19.70;99.90;;;;;;5042138;28;20421;-73
2023/06/06 09:53:14;;;;;;;1999.90;999.90;;;19.80;99.90;;;;;;5033886;28;20897;-74
2023/06/06 09:55:43;;;;;;;1999.90;999.90;;;19.90;99.90;;;;;;5033960;28;20415;-73
2023/06/06 09:58:11;;;;;;;1999.90;999.90;;;20.00;99.90;;;;;;5033790;28;20423;-73
2023/06/06 10:00:39;;;;;;;1999.90;999.90;;;20.30;99.90;;;;;;5036398;28;20443;-73
2023/06/06 10:03:06;;;;;;;1999.90;999.90;;;20.00;99.90;;;;;;5040409;28;20451;-73
2023/06/06 10:05:33;;;;;;;1999.90;999.90;;;19.60;99.90;;;;;;5038137;28;20415;-72
2023/06/06 10:08:01;;;;;;;1999.90;999.90;;;19.30;99.90;;;;;;5033422;28;20489;-73
2023/06/06 10:10:28;;;;;;;1999.90;999.90;;;19.20;99.90;;;;;;5033932;28;20445;-73
2023/06/06 10:12:57;;;;;;;1999.90;999.90;;;19.60;99.90;;;;;;5038101;28;20512;-73
2023/06/06 10:15:26;;;;;;;1999.90;999.90;;;19.80;99.90;;;;;;5039332;28;20537;-74
2023/06/06 10:17:53;;;;;;;1999.90;999.90;;;20.10;99.90;;;;;;5043988;28;20423;-73
2023/06/06 10:20:20;;;;;;;1999.90;999.90;;;20.30;99.90;;;;;;5038660;28;20484;-73
2023/06/06 10:22:47;;;;;;;1999.90;999.90;;;20.00;99.90;;;;;;5032834;28;20423;-73
2023/06/06 10:25:16;;;;;;;1999.90;999.90;;;20.30;99.90;;;;;;5033266;28;20422;-73
2023/06/06 10:27:51;;;;;;;1999.90;999.90;;;20.50;99.90;;;;;;5032429;28;20434;-73
2023/06/06 10:30:29;;;;;;;1999.90;999.90;;;20.50;99.90;;;;;;5032768;28;20422;-74
2023/06/06 10:33:09;;;;;;;1999.90;999.90;;;20.50;98.30;;;;;;5043241;28;20415;-72
2023/06/06 10:35:39;;;;;;;1999.90;999.90;;;20.50;99.60;;;;;;5053036;28;20406;-73
2023/06/06 10:38:06;;;;;;;1999.90;999.90;;;20.50;99.80;;;;;;5051914;28;20883;-73
2023/06/06 10:40:43;;;;;;;1999.90;999.90;;;20.60;99.90;;;;;;5052459;28;20496;-74
2023/06/06 10:43:11;;;;;;;1999.90;999.90;;;20.50;99.90;;;;;;5052747;28;20937;-73
2023/06/06 10:45:47;;;;;;;1999.90;999.90;;;20.50;99.90;;;;;;5043864;28;20445;-73
2023/06/06 10:48:14;;;;;;;1999.90;999.90;;;20.50;99.90;;;;;;5044859;28;20413;-74
2023/06/06 10:50:53;;;;;;;1999.90;999.90;;;20.50;99.90;;;;;;5052246;28;20416;-73
2023/06/06 10:53:20;;;;;;;1999.90;999.90;;;20.50;99.80;;;;;;5052484;28;20791;-75
2023/06/06 10:55:47;;;;;;;1999.90;999.90;;;20.40;99.90;;;;;;5052439;28;20429;-74
2023/06/06 10:58:27;;;;;;;1999.90;999.90;;;20.40;99.90;;;;;;5052164;28;20418;-73
2023/06/06 11:01:00;;;;;;;1999.90;999.90;;;20.40;99.90;;;;;;5042706;28;20978;-74
2023/06/06 11:03:36;;;;;;;1999.90;999.90;;;20.30;99.90;;;;;;5038179;28;20437;-70
2023/06/06 11:06:08;;;;;;;1999.90;999.90;;;20.60;99.50;;;;;;5032176;28;20898;-74
2023/06/06 11:08:36;;;;;;;1999.90;999.90;;;20.70;99.30;;;;;;5031845;28;20465;-74
2023/06/06 11:11:27;;;;;;;1999.90;999.90;;;20.80;99.60;;;;;;5032327;28;20793;-73
2023/06/06 11:13:56;;;;;;;1999.90;999.90;;;20.90;99.90;;;;;;5035042;28;20439;-73
2023/06/06 11:17:01;;;;;;;1999.90;999.90;;;21.00;99.30;;;;;;5037909;28;20530;-74
2023/06/06 11:19:34;;;;;;;1999.90;999.90;;;21.20;99.50;;;;;;5031933;28;20411;-74
2023/06/06 11:22:02;;;;;;;1999.90;999.90;;;21.20;99.70;;;;;;5031733;28;20415;-74
2023/06/06 11:24:36;;;;;;;1999.90;999.90;;;21.20;99.90;;;;;;5032170;28;20797;-73
2023/06/06 11:27:06;;;;;;;1999.90;999.90;;;21.20;99.90;;;;;;5031839;28;20422;-73
2023/06/06 11:29:34;;;;;;;1999.90;999.90;;;21.20;99.90;;;;;;5041477;28;20439;-74
2023/06/06 11:32:03;;;;;;;1999.90;999.90;;;21.10;99.90;;;;;;5032825;28;20511;-74
2023/06/06 11:34:33;;;;;;;1999.90;999.90;;;21.00;99.90;;;;;;5030979;28;20411;-74
2023/06/06 11:36:59;;;;;;;1999.90;999.90;;;21.20;99.60;;;;;;5033495;28;20465;-71
2023/06/06 11:39:28;;;;;;;1999.90;999.90;;;21.20;99.90;;;;;;5049103;28;20984;-74
2023/06/06 11:41:56;;;;;;;1999.90;999.90;;;21.10;99.90;;;;;;5043265;28;20433;-73
2023/06/06 11:44:31;;;;;;;1999.90;999.90;;;21.40;99.20;;;;;;5049441;28;20433;-75
2023/06/06 11:46:57;;;;;;;1999.90;999.90;;;21.70;99.50;;;;;;5039036;28;20437;-74
2023/06/06 11:49:25;;;;;;;1999.90;999.90;;;22.10;97.90;;;;;;5043673;28;20437;-74
2023/06/06 11:51:56;;;;;;;1999.90;999.90;;;22.70;97.10;;;;;;5045655;28;20811;-73
2023/06/06 11:54:23;;;;;;;1999.90;999.90;;;23.00;96.60;;;;;;5041499;28;20459;-74
2023/06/06 11:56:51;;;;;;;1999.90;999.90;;;22.80;96.40;;;;;;5083228;22;20440;-73
2023/06/06 11:59:19;;;;;;;1999.90;999.90;;;23.20;96.70;;;;;;5112103;27;20511;-74
2023/06/06 12:01:50;;;;;;;1999.90;999.90;;;23.40;95.90;;;;;;5109401;28;20424;-74
2023/06/06 12:04:18;;;;;;;1999.90;999.90;;;23.60;95.30;;;;;;5106979;28;20458;-70